TAF Text Data
IDs:
Format:
Raw Decoded Include METAR

Data at: 0741 UTC 01 Dec 2022

KSLC 010537Z 0106/0212 16011KT P6SM FEW100 WS020/21035KT
  FM011200 17020G35KT P6SM SCT100
  FM020200 17012G25KT P6SM VCSH BKN100
  FM020900 35020G30KT 1SM -SN OVC004